Time;durP1;ratioP1;P1;durP2;ratioP2;P2;SDS_P1;SDS_P2;PMS_P1;PMS_P2;Temp;Humidity;BMP_temperature;BMP_pressure;BME280_temperature;BME280_humidity;BME280_pressure;Samples;Min_cycle;Max_cycle;Signal;HPM_P1;HPM_P2
2021/06/28 00:00:27;;;;;;;24.23;11.53;;;;;;;16.75;59.71;99061.32;125681;1093;103011;-71
2021/06/28 00:03:17;;;;;;;21.00;11.63;;;;;;;16.68;59.47;99061.09;125708;1093;103418;-72
2021/06/28 00:05:47;;;;;;;18.83;10.10;;;;;;;16.59;59.90;99059.30;125728;1093;102910;-71
2021/06/28 00:08:17;;;;;;;20.77;10.33;;;;;;;16.56;59.83;99063.12;125672;1093;103057;-72
2021/06/28 00:10:45;;;;;;;19.13;10.57;;;;;;;16.54;59.93;99059.73;125682;1093;102991;-71
2021/06/28 00:13:14;;;;;;;19.37;10.37;;;;;;;16.55;60.16;99061.42;125685;1093;102935;-71
2021/06/28 00:15:43;;;;;;;20.37;10.33;;;;;;;16.51;60.16;99063.58;125969;1093;102991;-72
2021/06/28 00:18:15;;;;;;;20.87;9.77;;;;;;;16.46;60.07;99062.35;125528;1093;102932;-71
2021/06/28 00:20:44;;;;;;;18.90;10.30;;;;;;;16.37;60.01;99059.56;125518;1094;102993;-72
2021/06/28 00:23:13;;;;;;;17.77;10.03;;;;;;;16.33;60.40;99068.05;125676;1093;102987;-72
2021/06/28 00:25:41;;;;;;;19.07;10.07;;;;;;;16.33;60.50;99062.67;125646;1095;102931;-73
2021/06/28 00:28:11;;;;;;;20.27;10.50;;;;;;;16.36;60.42;99063.23;125647;1092;103005;-72
2021/06/28 00:30:43;;;;;;;18.50;10.57;;;;;;;16.31;60.45;99054.78;125613;1092;102939;-72
2021/06/28 00:33:19;;;;;;;18.10;10.67;;;;;;;16.19;60.04;99070.25;126540;1095;101887;-73
2021/06/28 00:35:49;;;;;;;20.90;9.77;;;;;;;16.00;60.22;99072.98;125673;1093;103066;-72
2021/06/28 00:38:19;;;;;;;19.47;10.30;;;;;;;15.87;60.43;99067.95;125637;1093;103083;-72
2021/06/28 00:40:47;;;;;;;20.40;11.57;;;;;;;15.74;60.36;99063.71;125588;1096;103457;-72
2021/06/28 00:43:16;;;;;;;21.40;11.77;;;;;;;15.67;60.77;99067.98;125572;1093;102927;-72
2021/06/28 00:45:49;;;;;;;21.00;11.80;;;;;;;15.58;60.92;99069.68;125603;1093;102930;-72
2021/06/28 00:48:19;;;;;;;20.43;11.30;;;;;;;15.54;61.01;99073.63;125626;1094;103416;-73
2021/06/28 00:50:51;;;;;;;20.47;11.20;;;;;;;15.53;61.41;99065.75;125710;1093;102999;-71
2021/06/28 00:53:23;;;;;;;25.27;11.37;;;;;;;15.54;61.37;99070.13;125766;1093;102988;-72
2021/06/28 00:56:08;;;;;;;19.27;10.30;;;;;;;15.48;61.42;99067.02;125746;1093;102933;-73
2021/06/28 00:58:43;;;;;;;19.55;10.60;;;;;;;15.43;61.50;99069.28;125604;1093;103122;-72
2021/06/28 01:01:13;;;;;;;20.73;11.10;;;;;;;15.35;61.50;99071.83;125681;1093;102996;-74
2021/06/28 01:03:42;;;;;;;24.50;11.20;;;;;;;15.24;61.34;99062.11;125642;1093;102939;-74
2021/06/28 01:06:11;;;;;;;18.50;10.63;;;;;;;15.19;61.81;99056.32;125678;1094;102935;-72
2021/06/28 01:08:42;;;;;;;18.93;11.23;;;;;;;15.22;62.04;99060.57;125686;1093;103007;-73
2021/06/28 01:11:12;;;;;;;19.00;10.87;;;;;;;15.25;62.21;99058.44;125624;1096;103361;-72
2021/06/28 01:13:42;;;;;;;19.90;11.27;;;;;;;15.30;62.30;99058.00;125665;1093;103029;-72
2021/06/28 01:16:10;;;;;;;20.93;11.77;;;;;;;15.30;62.29;99061.55;125646;1093;102999;-73
2021/06/28 01:18:40;;;;;;;20.80;11.67;;;;;;;15.32;62.32;99056.89;125628;1093;102910;-73
2021/06/28 01:21:12;;;;;;;22.03;12.33;;;;;;;15.35;62.47;99057.59;125672;1092;103089;-74
2021/06/28 01:23:41;;;;;;;24.40;12.57;;;;;;;15.31;62.33;99055.20;125657;1093;102972;-72
2021/06/28 01:26:12;;;;;;;19.70;11.33;;;;;;;15.29;62.51;99049.13;125686;1092;102915;-73
2021/06/28 01:28:41;;;;;;;20.80;11.87;;;;;;;15.25;62.33;99047.72;125699;1093;102913;-73
2021/06/28 01:31:13;;;;;;;20.37;11.10;;;;;;;15.18;62.28;99051.95;125679;1095;103034;-73
2021/06/28 01:33:43;;;;;;;21.95;12.00;;;;;;;15.06;62.64;99048.58;125671;1092;102913;-71
2021/06/28 01:36:12;;;;;;;21.37;12.03;;;;;;;15.01;62.40;99046.33;125675;1093;103012;-71
2021/06/28 01:38:40;;;;;;;22.13;11.60;;;;;;;15.02;62.91;99044.48;125692;1093;102935;-71
2021/06/28 01:41:09;;;;;;;20.27;11.57;;;;;;;15.06;63.03;99045.90;125654;1093;103087;-71
2021/06/28 01:43:37;;;;;;;19.73;11.43;;;;;;;15.11;63.24;99042.78;125686;1093;102901;-71
2021/06/28 01:46:05;;;;;;;20.07;12.10;;;;;;;15.14;63.21;99046.05;125749;1093;102930;-71
2021/06/28 01:48:37;;;;;;;20.57;11.77;;;;;;;15.18;63.25;99044.78;125663;1093;103162;-70
2021/06/28 01:51:09;;;;;;;21.10;11.90;;;;;;;15.21;63.35;99054.35;125693;1093;103009;-71
2021/06/28 01:53:41;;;;;;;21.47;12.00;;;;;;;15.24;63.41;99047.88;125669;1093;102985;-71
2021/06/28 01:56:10;;;;;;;21.40;11.00;;;;;;;15.26;63.39;99052.09;125673;1093;103000;-71
2021/06/28 01:58:42;;;;;;;26.77;12.60;;;;;;;15.29;63.44;99045.59;125704;1093;103044;-71
2021/06/28 02:01:10;;;;;;;22.73;11.53;;;;;;;15.30;63.46;99052.64;125646;1093;102981;-70
2021/06/28 02:03:40;;;;;;;20.87;12.00;;;;;;;15.29;63.47;99050.95;125665;1093;102941;-71
2021/06/28 02:06:08;;;;;;;21.17;10.77;;;;;;;15.28;63.51;99051.97;125676;1093;103015;-73
2021/06/28 02:08:37;;;;;;;20.00;11.63;;;;;;;15.29;63.59;99043.77;125659;1093;103028;-72
2021/06/28 02:11:06;;;;;;;20.27;10.73;;;;;;;15.30;63.57;99050.83;125648;1093;102930;-72
2021/06/28 02:13:38;;;;;;;19.57;10.23;;;;;;;15.31;63.63;99049.84;125660;1094;102935;-73
2021/06/28 02:16:08;;;;;;;20.20;10.80;;;;;;;15.32;63.75;99054.21;125652;1092;102964;-72
2021/06/28 02:18:36;;;;;;;19.30;11.10;;;;;;;15.33;63.76;99045.19;125678;1093;102913;-71
2021/06/28 02:21:07;;;;;;;21.73;11.30;;;;;;;15.33;63.72;99047.00;125667;1096;103064;-73
2021/06/28 02:23:39;;;;;;;23.40;11.97;;;;;;;15.33;63.91;99055.04;125697;1093;102935;-73
2021/06/28 02:26:14;;;;;;;19.30;10.45;;;;;;;15.35;63.93;99055.74;125628;1093;102935;-71
2021/06/28 02:28:50;;;;;;;19.43;10.17;;;;;;;15.33;63.90;99055.90;126122;1093;102964;-70
2021/06/28 02:31:22;;;;;;;19.03;10.30;;;;;;;15.13;63.57;99051.52;125659;1095;102936;-72
2021/06/28 02:33:54;;;;;;;20.60;11.87;;;;;;;14.96;63.66;99053.94;125688;1096;103071;-71
2021/06/28 02:36:25;;;;;;;22.10;12.57;;;;;;;14.93;64.15;99051.54;125652;1097;103209;-72
2021/06/28 02:38:57;;;;;;;21.37;11.67;;;;;;;14.98;64.26;99059.14;125640;1097;102922;-72
2021/06/28 02:41:27;;;;;;;19.40;11.10;;;;;;;15.01;64.29;99057.05;125682;1096;103054;-72
2021/06/28 02:43:57;;;;;;;20.37;12.17;;;;;;;15.01;64.48;99054.38;125707;1093;103447;-72
2021/06/28 02:46:25;;;;;;;19.63;11.00;;;;;;;14.99;64.19;99050.98;125706;1092;103005;-71
2021/06/28 02:48:54;;;;;;;21.03;10.97;;;;;;;14.89;64.26;99061.67;125652;1096;103005;-72
2021/06/28 02:51:22;;;;;;;20.20;10.73;;;;;;;14.87;64.61;99055.64;125654;1093;103000;-72
2021/06/28 02:53:51;;;;;;;23.90;11.73;;;;;;;14.92;64.66;99057.02;125646;1096;103104;-73
2021/06/28 02:56:21;;;;;;;21.70;11.43;;;;;;;14.96;64.76;99055.76;125670;1095;102912;-72
2021/06/28 02:58:54;;;;;;;25.60;12.50;;;;;;;14.99;64.72;99058.16;125655;1096;102934;-72
2021/06/28 03:01:26;;;;;;;23.63;11.83;;;;;;;15.02;64.87;99060.55;125688;1096;103031;-72
2021/06/28 03:03:57;;;;;;;21.60;12.18;;;;;;;15.06;64.78;99059.30;125695;1095;102964;-72
2021/06/28 03:06:25;;;;;;;21.23;11.50;;;;;;;15.08;64.86;99054.64;125701;1096;102948;-72
2021/06/28 03:08:53;;;;;;;21.97;11.93;;;;;;;15.11;64.92;99059.72;125697;1096;103087;-72
2021/06/28 03:11:23;;;;;;;19.53;11.33;;;;;;;15.13;65.03;99056.88;125703;1095;103061;-70
2021/06/28 03:13:53;;;;;;;22.47;11.23;;;;;;;15.16;65.03;99053.92;125714;1096;103001;-72
2021/06/28 03:16:22;;;;;;;20.00;11.25;;;;;;;15.19;65.04;99053.64;125649;1093;103505;-72
2021/06/28 03:18:52;;;;;;;19.33;11.03;;;;;;;15.22;65.09;99053.36;125721;1093;103005;-71
2021/06/28 03:21:21;;;;;;;22.97;10.17;;;;;;;15.24;65.12;99051.39;125694;1093;103031;-71
2021/06/28 03:23:50;;;;;;;20.30;10.77;;;;;;;15.28;65.22;99049.29;125708;1093;103094;-72
2021/06/28 03:26:18;;;;;;;20.57;11.50;;;;;;;15.29;65.19;99051.81;125668;1094;103018;-72
2021/06/28 03:28:46;;;;;;;21.67;10.93;;;;;;;15.33;65.23;99055.04;125653;1096;102991;-71
2021/06/28 03:31:15;;;;;;;21.63;11.47;;;;;;;15.37;65.29;99060.98;125737;1092;103100;-72
2021/06/28 03:33:43;;;;;;;22.27;12.17;;;;;;;15.39;65.43;99062.52;125709;1093;102930;-72
2021/06/28 03:36:12;;;;;;;19.77;10.83;;;;;;;15.42;65.52;99064.08;125720;1093;103370;-72
2021/06/28 03:38:45;;;;;;;20.78;10.80;;;;;;;15.45;65.46;99061.95;125674;1093;103004;-73
2021/06/28 03:41:13;;;;;;;20.43;12.07;;;;;;;15.49;65.53;99062.49;125644;1096;102935;-72
2021/06/28 03:43:41;;;;;;;21.93;11.30;;;;;;;15.53;65.50;99057.70;125696;1093;103127;-72
2021/06/28 03:46:10;;;;;;;18.73;10.53;;;;;;;15.57;65.64;99067.98;125703;1093;102933;-72
2021/06/28 03:48:38;;;;;;;19.87;11.83;;;;;;;15.61;65.62;99063.20;125707;1093;103004;-73
2021/06/28 03:51:07;;;;;;;19.57;11.47;;;;;;;15.65;65.75;99061.06;125687;1093;103427;-72
2021/06/28 03:53:35;;;;;;;19.63;11.87;;;;;;;15.71;65.82;99065.85;125642;1093;102992;-71
2021/06/28 03:56:07;;;;;;;21.25;13.35;;;;;;;15.76;65.82;99067.09;125697;1093;102913;-71
2021/06/28 03:58:38;;;;;;;19.20;11.37;;;;;;;15.81;65.91;99063.14;125636;1093;103051;-71
2021/06/28 04:01:08;;;;;;;20.80;11.30;;;;;;;15.86;65.73;99063.55;125702;1093;102953;-72
2021/06/28 04:03:39;;;;;;;19.23;11.30;;;;;;;15.86;65.85;99064.44;125665;1093;103065;-72
2021/06/28 04:06:10;;;;;;;21.03;10.97;;;;;;;15.87;65.70;99059.91;125652;1096;103106;-74
2021/06/28 04:08:40;;;;;;;24.57;11.60;;;;;;;15.88;66.11;99067.83;125690;1093;103531;-74
2021/06/28 04:11:08;;;;;;;19.43;11.23;;;;;;;15.91;65.96;99066.67;125636;1094;103039;-74
2021/06/28 04:13:37;;;;;;;20.27;12.00;;;;;;;15.95;66.12;99062.71;125693;1093;103015;-74
2021/06/28 04:16:07;;;;;;;22.47;12.07;;;;;;;16.00;66.16;99067.63;125629;1095;103646;-71
2021/06/28 04:18:36;;;;;;;20.93;11.77;;;;;;;16.04;66.38;99056.47;125686;1096;103028;-74
2021/06/28 04:21:05;;;;;;;19.90;12.27;;;;;;;16.11;66.37;99056.72;125657;1093;102910;-74
2021/06/28 04:23:34;;;;;;;19.87;11.50;;;;;;;16.19;66.44;99059.52;125660;1093;103064;-74
2021/06/28 04:26:04;;;;;;;19.70;11.83;;;;;;;16.27;66.61;99063.30;125674;1095;103026;-72
2021/06/28 04:28:34;;;;;;;26.13;12.13;;;;;;;16.34;66.74;99054.49;125641;1094;103409;-75
2021/06/28 04:31:05;;;;;;;19.00;11.93;;;;;;;16.44;66.49;99059.80;125630;1093;103186;-74
2021/06/28 04:33:33;;;;;;;23.20;12.13;;;;;;;16.52;66.47;99054.53;125694;1093;102912;-74
2021/06/28 04:36:03;;;;;;;21.00;11.97;;;;;;;16.61;66.60;99055.46;125618;1096;102936;-70
2021/06/28 04:38:33;;;;;;;22.43;12.93;;;;;;;16.71;66.61;99057.25;125650;1096;102912;-71
2021/06/28 04:41:03;;;;;;;19.33;11.73;;;;;;;16.81;66.90;99053.48;125685;1097;103015;-71
2021/06/28 04:43:31;;;;;;;20.73;12.03;;;;;;;16.89;66.64;99051.89;125454;1096;103007;-70
2021/06/28 04:46:00;;;;;;;20.07;11.00;;;;;;;16.98;66.83;99056.38;125692;1096;102934;-72
2021/06/28 04:48:28;;;;;;;21.03;12.10;;;;;;;17.07;66.79;99052.78;125664;1094;102920;-77
2021/06/28 04:50:56;;;;;;;21.60;12.20;;;;;;;17.17;66.96;99054.52;125669;1096;102987;-71
2021/06/28 04:53:25;;;;;;;21.67;11.47;;;;;;;17.25;66.79;99060.83;125602;1095;102920;-70
2021/06/28 04:55:53;;;;;;;20.53;12.60;;;;;;;17.33;67.04;99061.88;125567;1094;103090;-71
2021/06/28 04:58:21;;;;;;;21.23;12.40;;;;;;;17.41;67.13;99056.56;125924;1096;103022;-71
2021/06/28 05:00:51;;;;;;;23.50;14.07;;;;;;;17.50;67.42;99065.56;125695;1097;102942;-72
2021/06/28 05:03:20;;;;;;;22.00;13.47;;;;;;;17.59;66.80;99063.77;125715;1097;103020;-70
2021/06/28 05:05:48;;;;;;;22.73;13.50;;;;;;;17.68;66.95;99068.20;125694;1096;102994;-69
2021/06/28 05:08:16;;;;;;;22.90;13.87;;;;;;;17.79;67.05;99065.23;125700;1097;102942;-70
2021/06/28 05:10:45;;;;;;;22.67;14.40;;;;;;;17.91;67.43;99063.14;125677;1094;102991;-71
2021/06/28 05:13:13;;;;;;;23.43;15.90;;;;;;;18.03;67.13;99066.44;125682;1092;103360;-70
2021/06/28 05:15:41;;;;;;;23.57;15.37;;;;;;;18.11;67.28;99068.31;125722;1093;102997;-70
2021/06/28 05:18:12;;;;;;;21.47;13.77;;;;;;;18.22;66.93;99072.56;125704;1093;103005;-70
2021/06/28 05:20:41;;;;;;;22.00;14.70;;;;;;;18.29;67.15;99065.53;125664;1093;102994;-69
2021/06/28 05:23:09;;;;;;;23.03;14.67;;;;;;;18.40;67.33;99073.33;126519;1093;103099;-71
2021/06/28 05:25:38;;;;;;;23.37;15.17;;;;;;;18.49;67.13;99078.75;125589;1093;102935;-71
2021/06/28 05:28:08;;;;;;;22.83;14.90;;;;;;;18.59;67.46;99084.83;125588;1093;102998;-72
2021/06/28 05:30:38;;;;;;;21.55;13.40;;;;;;;18.69;66.98;99080.16;125640;1092;103497;-71
2021/06/28 05:33:06;;;;;;;23.77;14.47;;;;;;;18.80;67.13;99076.30;125615;1094;103064;-71
2021/06/28 05:35:35;;;;;;;24.40;14.30;;;;;;;18.89;67.32;99086.09;125635;1092;102936;-73
2021/06/28 05:38:04;;;;;;;21.87;14.30;;;;;;;19.04;67.17;99089.02;125614;1093;102913;-71
2021/06/28 05:40:33;;;;;;;23.47;13.80;;;;;;;19.22;67.14;99084.48;125666;1095;103084;-71
2021/06/28 05:43:01;;;;;;;23.23;14.40;;;;;;;19.49;67.14;99094.11;125685;1096;102971;-70
2021/06/28 05:45:32;;;;;;;25.27;13.80;;;;;;;20.02;66.81;99091.05;125573;1095;103191;-71
2021/06/28 05:48:05;;;;;;;21.27;12.13;;;;;;;20.55;66.55;99080.55;125677;1093;103110;-70
2021/06/28 05:50:33;;;;;;;20.70;12.70;;;;;;;20.95;67.16;99084.08;125656;1093;102984;-71
2021/06/28 05:53:02;;;;;;;22.80;13.57;;;;;;;21.22;66.83;99097.27;125660;1092;103013;-72
2021/06/28 05:55:32;;;;;;;19.77;11.97;;;;;;;21.41;66.87;99090.52;125641;1093;103019;-70
2021/06/28 05:58:02;;;;;;;19.50;11.70;;;;;;;21.51;66.71;99093.83;125586;1093;103010;-72
2021/06/28 06:00:31;;;;;;;20.33;12.20;;;;;;;21.60;66.94;99100.00;125584;1093;103113;-72
2021/06/28 06:03:00;;;;;;;21.57;11.77;;;;;;;21.67;66.76;99098.28;125608;1093;103518;-72
2021/06/28 06:05:30;;;;;;;18.87;11.77;;;;;;;21.76;66.72;99095.51;125592;1093;103061;-74
2021/06/28 06:07:58;;;;;;;22.67;11.97;;;;;;;21.90;67.09;99093.84;125623;1093;102982;-72
2021/06/28 06:10:26;;;;;;;17.43;10.47;;;;;;;22.05;66.91;99104.69;125572;1093;102997;-74
2021/06/28 06:12:55;;;;;;;16.83;9.80;;;;;;;22.18;66.50;99102.19;125703;1093;103370;-74
2021/06/28 06:15:25;;;;;;;18.27;10.70;;;;;;;22.37;66.88;99110.77;125634;1093;103023;-73
2021/06/28 06:17:53;;;;;;;17.67;9.60;;;;;;;22.53;66.40;99109.75;125649;1093;102942;-73
2021/06/28 06:20:21;;;;;;;15.63;9.50;;;;;;;22.61;66.56;99112.36;125630;1093;102994;-75
2021/06/28 06:22:52;;;;;;;21.07;10.17;;;;;;;22.69;66.06;99116.83;125637;1093;103060;-75
2021/06/28 06:25:21;;;;;;;19.53;9.73;;;;;;;22.80;66.10;99112.81;125694;1093;103030;-75
2021/06/28 06:27:50;;;;;;;16.63;9.13;;;;;;;22.93;66.05;99121.09;125683;1093;102914;-74
2021/06/28 06:30:20;;;;;;;16.30;8.67;;;;;;;23.03;66.19;99116.20;125680;1090;102911;-72
2021/06/28 06:32:50;;;;;;;17.00;8.57;;;;;;;23.12;65.78;99122.34;125623;1093;102911;-71
2021/06/28 06:35:22;;;;;;;16.50;8.80;;;;;;;23.23;65.45;99118.30;125559;1093;103001;-71
2021/06/28 06:37:55;;;;;;;15.63;8.53;;;;;;;23.36;65.71;99128.48;125658;1095;102945;-72
2021/06/28 06:40:26;;;;;;;;;;;;;;;23.46;64.94;99123.55;125740;1092;103031;-73
2021/06/28 06:42:57;;;;;;;15.73;8.63;;;;;;;23.59;65.39;99127.42;125684;1093;102997;-72
2021/06/28 06:45:27;;;;;;;17.63;8.67;;;;;;;23.79;65.53;99130.31;125598;1093;103132;-71
2021/06/28 06:47:56;;;;;;;19.70;8.93;;;;;;;23.97;65.71;99131.71;125877;1092;103108;-70
2021/06/28 06:50:28;;;;;;;15.78;9.20;;;;;;;24.16;65.56;99135.64;125676;1093;102910;-73
2021/06/28 06:52:57;;;;;;;25.60;9.23;;;;;;;24.32;65.25;99139.92;125613;1093;102970;-72
2021/06/28 06:55:26;;;;;;;16.07;9.00;;;;;;;24.41;64.57;99138.73;126266;1096;102916;-72
2021/06/28 06:57:55;;;;;;;13.07;7.90;;;;;;;24.52;64.61;99140.86;125650;1093;103012;-73
2021/06/28 07:00:23;;;;;;;13.57;7.67;;;;;;;24.68;64.35;99136.14;125543;1092;103142;-72
2021/06/28 07:02:53;;;;;;;14.13;7.90;;;;;;;24.82;64.30;99139.78;125714;1095;102984;-72
2021/06/28 07:05:23;;;;;;;17.33;8.60;;;;;;;25.01;64.44;99140.89;125603;1095;103015;-76
2021/06/28 07:07:52;;;;;;;16.60;7.87;;;;;;;25.33;64.34;99130.29;125725;1093;102924;-72
2021/06/28 07:10:20;;;;;;;14.77;8.33;;;;;;;26.45;62.88;99131.58;125711;1093;103041;-73
2021/06/28 07:12:52;;;;;;;15.80;7.90;;;;;;;27.54;62.74;99139.05;125657;1093;103347;-73
2021/06/28 07:15:23;;;;;;;16.83;7.83;;;;;;;28.46;62.37;99142.27;125708;1096;102913;-74
2021/06/28 07:17:51;;;;;;;13.03;6.93;;;;;;;29.06;62.15;99141.56;125655;1096;103061;-72
2021/06/28 07:20:23;;;;;;;13.93;7.77;;;;;;;29.75;61.80;99140.36;125689;1093;103061;-71
2021/06/28 07:22:53;;;;;;;9.73;6.43;;;;;;;30.67;62.30;99142.76;125716;1093;103207;-74
2021/06/28 07:25:24;;;;;;;11.53;6.40;;;;;;;31.63;61.99;99135.78;125708;1093;102911;-71
2021/06/28 07:27:53;;;;;;;11.03;6.63;;;;;;;32.11;61.51;99150.06;125712;1093;103058;-73
2021/06/28 07:30:25;;;;;;;11.80;6.40;;;;;;;32.55;61.79;99137.49;125699;1093;103017;-71
2021/06/28 07:32:54;;;;;;;11.00;5.67;;;;;;;33.02;61.26;99138.91;125705;1095;103007;-74
2021/06/28 07:35:27;;;;;;;11.77;6.83;;;;;;;33.43;60.87;99138.51;125648;1096;103070;-73
2021/06/28 07:37:57;;;;;;;10.13;5.67;;;;;;;33.55;60.12;99145.55;125636;1093;104359;-72
2021/06/28 07:40:26;;;;;;;9.63;5.60;;;;;;;33.37;60.31;99141.21;125714;1093;102933;-72
2021/06/28 07:42:54;;;;;;;10.43;6.27;;;;;;;33.79;58.77;99138.84;125678;1093;102922;-72
2021/06/28 07:45:24;;;;;;;13.30;6.90;;;;;;;34.61;59.24;99124.76;125700;1093;103060;-72
2021/06/28 07:47:53;;;;;;;18.53;7.10;;;;;;;35.42;58.60;99135.50;125710;1093;102913;-72
2021/06/28 07:50:22;;;;;;;9.60;6.40;;;;;;;35.99;58.18;99125.30;125679;1094;103563;-73
2021/06/28 07:52:52;;;;;;;10.47;6.10;;;;;;;36.18;57.27;99128.31;125714;1093;103061;-72
2021/06/28 07:55:23;;;;;;;16.77;7.40;;;;;;;36.09;56.59;99134.70;125679;1092;103007;-72
2021/06/28 07:57:51;;;;;;;11.10;5.83;;;;;;;36.36;55.90;99126.88;125680;1093;102932;-72
2021/06/28 08:00:20;;;;;;;9.27;5.40;;;;;;;36.68;55.76;99126.81;125666;1093;103084;-72
2021/06/28 08:02:49;;;;;;;11.13;5.93;;;;;;;36.74;54.61;99126.50;125692;1096;103068;-72
2021/06/28 08:05:19;;;;;;;10.93;5.70;;;;;;;37.00;54.30;99131.92;125735;1092;102941;-72
2021/06/28 08:07:48;;;;;;;10.17;5.90;;;;;;;36.79;53.17;99120.94;125676;1093;103020;-73
2021/06/28 08:10:18;;;;;;;9.33;5.23;;;;;;;36.97;52.97;99126.95;125689;1096;102912;-72
2021/06/28 08:12:49;;;;;;;17.33;5.73;;;;;;;37.19;52.80;99123.77;125686;1095;103001;-73
2021/06/28 08:15:19;;;;;;;8.70;5.67;;;;;;;36.90;51.80;99124.47;125663;1093;102916;-72
2021/06/28 08:17:50;;;;;;;8.63;5.87;;;;;;;36.48;50.99;99126.59;125617;1093;101861;-71
2021/06/28 08:20:22;;;;;;;11.93;5.40;;;;;;;36.90;51.35;99115.31;125630;1095;103094;-72
2021/06/28 08:22:53;;;;;;;7.63;5.40;;;;;;;37.10;50.49;99119.94;125710;1093;102933;-72
2021/06/28 08:25:25;;;;;;;10.43;5.63;;;;;;;37.19;50.56;99129.31;125663;1093;102938;-72
2021/06/28 08:27:53;;;;;;;12.13;5.40;;;;;;;37.46;50.14;99127.22;125639;1093;102923;-72
2021/06/28 08:30:23;;;;;;;10.50;5.10;;;;;;;37.51;48.71;99124.41;125681;1096;102934;-73
2021/06/28 08:32:52;;;;;;;10.40;6.10;;;;;;;36.94;48.49;99124.72;125679;1093;103439;-73
2021/06/28 08:35:20;;;;;;;10.10;5.50;;;;;;;36.77;48.57;99134.24;125729;1093;102943;-71
2021/06/28 08:37:51;;;;;;;12.33;5.47;;;;;;;36.98;48.12;99139.70;125685;1093;102938;-73
2021/06/28 08:40:19;;;;;;;13.20;5.60;;;;;;;36.67;46.37;99137.05;125631;1095;102917;-72
2021/06/28 08:42:48;;;;;;;10.60;5.30;;;;;;;36.33;47.02;99135.74;125667;1093;103031;-71
2021/06/28 08:45:18;;;;;;;7.57;5.23;;;;;;;36.41;46.29;99133.52;125665;1093;102935;-72
2021/06/28 08:47:48;;;;;;;8.80;5.30;;;;;;;36.17;45.78;99134.14;125705;1093;103025;-72
2021/06/28 08:50:17;;;;;;;9.20;5.63;;;;;;;36.23;45.86;99137.72;125649;1093;103012;-72
2021/06/28 08:52:46;;;;;;;10.40;5.90;;;;;;;36.15;44.94;99131.64;125665;1093;103057;-73
2021/06/28 08:55:16;;;;;;;11.20;5.30;;;;;;;36.13;45.15;99138.58;125671;1092;103091;-72
2021/06/28 08:57:44;;;;;;;8.30;5.53;;;;;;;35.85;44.31;99130.55;126057;1095;102916;-74
2021/06/28 09:00:16;;;;;;;9.40;5.33;;;;;;;35.70;44.02;99134.16;125657;1095;102969;-78
2021/06/28 09:03:01;;;;;;;8.08;5.35;;;;;;;35.52;43.65;99129.17;126161;1093;102912;-71
2021/06/28 09:05:51;;;;;;;9.23;5.90;;;;;;;35.28;44.16;99124.15;125636;1094;102975;-72
2021/06/28 09:08:22;;;;;;;7.27;5.53;;;;;;;35.43;43.46;99131.63;125686;1094;103021;-74
2021/06/28 09:10:56;;;;;;;9.20;4.80;;;;;;;35.14;42.27;99137.67;125637;1093;103144;-75
2021/06/28 09:13:42;;;;;;;9.18;5.23;;;;;;;34.87;42.09;99136.73;125636;1096;103098;-71
2021/06/28 09:16:28;;;;;;;10.33;5.27;;;;;;;34.74;42.07;99134.47;125635;1096;103027;-71
2021/06/28 09:19:09;;;;;;;7.97;5.17;;;;;;;34.57;41.92;99131.92;125597;1093;103063;-72
2021/06/28 09:21:44;;;;;;;15.03;6.23;;;;;;;34.22;41.58;99131.45;125614;1095;102939;-72
2021/06/28 09:24:37;;;;;;;9.57;5.30;;;;;;;34.19;41.91;99134.74;125548;1093;102993;-71
2021/06/28 09:27:10;;;;;;;11.20;5.73;;;;;;;34.26;41.51;99127.03;125570;1093;103030;-71
2021/06/28 09:29:46;;;;;;;8.27;4.87;;;;;;;34.55;41.26;99132.20;125686;1093;103342;-71
2021/06/28 09:32:20;;;;;;;7.27;4.57;;;;;;;34.44;40.44;99134.06;125631;1093;103084;-71
2021/06/28 09:34:53;;;;;;;8.33;4.63;;;;;;;34.33;41.12;99121.29;125671;1092;102951;-72
2021/06/28 09:37:27;;;;;;;11.10;5.23;;;;;;;34.20;40.22;99119.84;125679;1092;103029;-72
2021/06/28 09:40:00;;;;;;;8.37;4.83;;;;;;;34.06;40.14;99118.64;125710;1093;103384;-73
2021/06/28 09:42:32;;;;;;;8.63;4.80;;;;;;;33.89;39.70;99124.29;125660;1093;103064;-72
2021/06/28 09:45:15;;;;;;;8.30;5.20;;;;;;;33.48;39.89;99124.77;125676;1093;103058;-71
2021/06/28 09:47:44;;;;;;;9.05;5.45;;;;;;;33.02;39.47;99134.21;125693;1093;102910;-73
2021/06/28 09:50:23;;;;;;;9.75;5.20;;;;;;;32.76;39.40;99125.63;125667;1093;102939;-72
2021/06/28 09:52:59;;;;;;;7.53;5.13;;;;;;;32.43;39.39;99126.58;125644;1093;102978;-71
2021/06/28 09:55:34;;;;;;;7.47;4.90;;;;;;;32.26;39.14;99127.44;125700;1093;102959;-71
2021/06/28 09:58:13;;;;;;;19.20;11.87;;;;;;;32.16;39.17;99128.14;125658;1095;102921;-73
2021/06/28 10:00:45;;;;;;;10.43;5.83;;;;;;;32.14;38.75;99129.45;125569;1096;103470;-71
2021/06/28 10:03:37;;;;;;;7.67;4.80;;;;;;;31.87;38.68;99130.16;127739;1093;100954;-71
2021/06/28 10:06:15;;;;;;;10.93;5.10;;;;;;;31.69;38.50;99121.04;125974;1093;103065;-71
2021/06/28 10:08:46;;;;;;;9.37;5.10;;;;;;;31.43;38.43;99128.87;125602;1094;102971;-71
2021/06/28 10:11:23;;;;;;;10.50;5.37;;;;;;;31.21;38.31;99127.89;125603;1096;102914;-72
2021/06/28 10:13:55;;;;;;;8.73;5.10;;;;;;;30.96;38.02;99129.05;125636;1093;102938;-71
2021/06/28 10:16:26;;;;;;;8.48;4.98;;;;;;;30.63;38.21;99120.44;125640;1093;102992;-70
2021/06/28 10:18:56;;;;;;;14.33;5.07;;;;;;;30.43;38.14;99132.63;125657;1093;102916;-71
2021/06/28 10:21:26;;;;;;;9.80;4.63;;;;;;;30.28;37.49;99116.67;125649;1093;103381;-71
2021/06/28 10:23:55;;;;;;;7.57;4.30;;;;;;;30.06;38.01;99123.82;125665;1095;102952;-71
2021/06/28 10:26:24;;;;;;;4.87;3.90;;;;;;;29.88;37.55;99114.63;125685;1096;102915;-72
2021/06/28 10:28:55;;;;;;;7.60;3.80;;;;;;;29.80;37.58;99110.31;125694;1096;102932;-72
2021/06/28 10:31:24;;;;;;;8.93;4.23;;;;;;;29.74;37.46;99114.02;125717;1096;103044;-71
2021/06/28 10:34:00;;;;;;;10.07;4.20;;;;;;;29.65;37.56;99112.70;125676;1096;102913;-71
2021/06/28 10:36:36;;;;;;;6.37;4.00;;;;;;;29.51;36.83;99107.42;125654;1096;103092;-72
2021/06/28 10:39:07;;;;;;;6.23;3.93;;;;;;;29.37;36.88;99098.58;125653;1094;103064;-72
2021/06/28 10:41:52;;;;;;;8.63;4.40;;;;;;;29.26;36.99;99102.09;125668;1094;103065;-71
2021/06/28 10:44:22;;;;;;;9.03;4.60;;;;;;;29.04;36.88;99105.36;125656;1096;102916;-71
2021/06/28 10:46:55;;;;;;;7.37;4.10;;;;;;;28.89;36.81;99110.41;125617;1093;102948;-72
2021/06/28 10:49:45;;;;;;;8.17;4.23;;;;;;;28.76;36.90;99111.42;125627;1093;102920;-71
2021/06/28 10:52:33;;;;;;;5.60;3.70;;;;;;;28.67;36.87;99119.08;125680;1093;103009;-71
2021/06/28 10:55:17;;;;;;;5.03;3.33;;;;;;;28.60;37.10;99130.09;125651;1095;102916;-72
2021/06/28 10:57:49;;;;;;;5.70;3.70;;;;;;;28.52;36.61;99122.21;125661;1093;102917;-71
2021/06/28 11:00:55;;;;;;;8.58;3.73;;;;;;;28.48;36.52;99112.78;125661;1093;103093;-71
2021/06/28 11:03:25;;;;;;;7.87;4.20;;;;;;;28.30;36.23;99113.62;125598;1092;103112;-71
2021/06/28 11:06:15;;;;;;;8.77;3.90;;;;;;;28.08;36.10;99119.47;125640;1092;103005;-71
2021/06/28 11:08:57;;;;;;;8.80;3.90;;;;;;;27.92;36.39;99112.69;125657;1093;102912;-70
2021/06/28 11:11:44;;;;;;;7.07;3.60;;;;;;;27.86;36.60;99116.31;125697;1093;102910;-71
2021/06/28 11:14:19;;;;;;;5.10;3.60;;;;;;;27.87;36.31;99107.91;125639;1093;102933;-70
2021/06/28 11:17:08;;;;;;;5.10;3.47;;;;;;;27.88;36.58;99106.84;125623;1094;102913;-70
2021/06/28 11:19:53;;;;;;;5.60;3.30;;;;;;;27.87;36.47;99107.05;125662;1093;103065;-70
2021/06/28 11:22:30;;;;;;;5.70;3.57;;;;;;;27.87;36.28;99105.17;125632;1093;103189;-71
2021/06/28 11:25:13;;;;;;;6.43;3.60;;;;;;;27.87;36.36;99105.17;125623;1093;103068;-71